Time;durP1;ratioP1;P1;durP2;ratioP2;P2;SDS_P1;SDS_P2;PMS_P1;PMS_P2;Temp;Humidity;BMP_temperature;BMP_pressure;BME280_temperature;BME280_humidity;BME280_pressure;Samples;Min_cycle;Max_cycle;Signal;HPM_P1;HPM_P2
2023/07/16 08:49:50;;;;;;;14.00;5.68;;;;;;;18.38;87.75;101011.91;5068898;28;20382;-82
2023/07/16 08:52:17;;;;;;;11.07;5.60;;;;;;;18.37;82.88;101017.66;5063051;28;20499;-71
2023/07/16 08:54:42;;;;;;;13.30;5.60;;;;;;;18.36;87.09;101026.97;5049070;28;20494;-71
2023/07/16 08:57:08;;;;;;;12.93;5.97;;;;;;;18.34;82.43;101023.69;5086453;28;20103;-72
2023/07/16 08:59:34;;;;;;;11.38;5.03;;;;;;;18.46;83.95;101017.94;5067141;28;20084;-73
2023/07/16 09:01:59;;;;;;;10.75;5.35;;;;;;;18.57;85.83;101028.63;5063344;28;20510;-73
2023/07/16 09:04:24;;;;;;;11.73;5.05;;;;;;;18.73;84.88;101023.94;5068184;28;20090;-69
2023/07/16 09:06:50;;;;;;;16.48;5.45;;;;;;;18.90;80.56;101034.66;5068733;28;20098;-68
2023/07/16 09:09:23;;;;;;;13.68;5.28;;;;;;;19.06;84.59;101032.69;5068783;28;20024;-69
2023/07/16 09:11:48;;;;;;;11.93;5.32;;;;;;;19.19;83.23;101042.28;5069041;28;20029;-70
2023/07/16 09:14:21;;;;;;;9.95;4.40;;;;;;;19.18;74.07;101043.38;5067624;28;20071;-69
2023/07/16 09:16:50;;;;;;;12.25;4.45;;;;;;;19.15;76.80;101038.44;5065788;28;20037;-68
2023/07/16 09:19:18;;;;;;;12.90;4.97;;;;;;;19.12;74.59;101033.50;5068990;28;20060;-67
2023/07/16 09:21:46;;;;;;;10.60;4.82;;;;;;;19.16;73.49;101040.09;5062842;28;20036;-67
2023/07/16 09:24:11;;;;;;;9.95;5.00;;;;;;;19.27;78.41;101035.41;5049080;28;20040;-67
2023/07/16 09:26:38;;;;;;;12.38;5.70;;;;;;;19.38;78.09;101047.16;5047747;28;20037;-67
2023/07/16 09:29:07;;;;;;;10.65;5.00;;;;;;;19.49;75.09;101040.53;5049253;28;20032;-67
2023/07/16 09:31:33;;;;;;;11.20;4.90;;;;;;;19.56;76.89;101048.47;5049475;28;20035;-67
2023/07/16 09:33:58;;;;;;;9.32;4.60;;;;;;;19.50;71.50;101039.41;5049067;28;20025;-71
2023/07/16 09:36:25;;;;;;;10.70;4.40;;;;;;;19.53;73.43;101049.03;5048672;28;20029;-67
2023/07/16 09:38:53;;;;;;;9.23;4.55;;;;;;;19.54;73.66;101047.94;5050101;28;20029;-68
2023/07/16 09:41:20;;;;;;;10.77;5.00;;;;;;;19.51;71.61;101041.06;5048780;28;20029;-67
2023/07/16 09:43:46;;;;;;;10.32;4.60;;;;;;;19.56;71.73;101052.03;5048701;28;20025;-68
2023/07/16 09:46:11;;;;;;;9.63;4.88;;;;;;;19.55;73.59;101053.16;5048594;28;20029;-67
2023/07/16 09:48:36;;;;;;;10.95;5.47;;;;;;;19.56;73.04;101056.69;5047470;28;20072;-67
2023/07/16 09:51:02;;;;;;;9.48;4.70;;;;;;;19.54;70.23;101059.72;5048546;28;20029;-67
2023/07/16 09:53:31;;;;;;;14.07;5.07;;;;;;;19.53;72.17;101076.47;5047294;28;20036;-67
2023/07/16 09:55:59;;;;;;;9.80;4.13;;;;;;;19.51;70.42;101071.25;5048756;28;20025;-67
2023/07/16 09:58:25;;;;;;;11.32;4.45;;;;;;;19.59;71.22;101070.69;5050631;28;20037;-67
2023/07/16 10:00:50;;;;;;;9.05;4.60;;;;;;;19.68;72.63;101072.84;5036345;28;20070;-67
2023/07/16 10:03:18;;;;;;;9.27;4.38;;;;;;;19.65;69.14;101075.03;5055350;28;20021;-67
2023/07/16 10:05:44;;;;;;;7.43;4.22;;;;;;;19.72;74.38;101074.75;5055518;28;20086;-67
2023/07/16 10:08:19;;;;;;;10.35;4.68;;;;;;;19.77;70.51;101082.16;5055112;28;20028;-67
2023/07/16 10:10:53;;;;;;;10.30;4.35;;;;;;;19.87;70.85;101093.13;5055164;28;20037;-67
2023/07/16 10:13:22;;;;;;;10.02;4.50;;;;;;;19.87;68.89;101087.63;5054944;28;20025;-67
2023/07/16 10:15:56;;;;;;;10.40;4.93;;;;;;;19.92;70.26;101089.53;5048998;28;20041;-67
2023/07/16 10:18:34;;;;;;;11.43;4.75;;;;;;;19.87;67.41;101093.13;5034352;28;20033;-67
2023/07/16 10:21:07;;;;;;;10.98;4.50;;;;;;;19.86;69.13;101099.72;5034942;28;20029;-69
2023/07/16 10:23:39;;;;;;;8.75;4.55;;;;;;;19.94;69.27;101101.88;5034295;28;20472;-67
2023/07/16 10:26:05;;;;;;;10.25;4.57;;;;;;;19.92;69.37;101098.56;5046739;28;20033;-69
2023/07/16 10:28:34;;;;;;;10.65;4.38;;;;;;;19.89;68.63;101107.38;5034604;28;20116;-69
2023/07/16 10:31:00;;;;;;;9.85;4.55;;;;;;;19.98;68.84;101104.88;5035252;28;20029;-68
2023/07/16 10:33:25;;;;;;;10.82;4.50;;;;;;;19.98;68.28;101097.44;5034544;28;20037;-68
2023/07/16 10:35:51;;;;;;;12.23;4.97;;;;;;;20.07;69.34;101096.88;5045361;28;20533;-67
2023/07/16 10:38:16;;;;;;;8.32;4.47;;;;;;;20.21;69.16;101100.63;5045964;28;20040;-67
2023/07/16 10:40:44;;;;;;;8.68;4.55;;;;;;;20.30;71.37;101101.66;5037926;28;20473;-69
2023/07/16 10:43:09;;;;;;;10.95;4.40;;;;;;;20.30;66.97;101106.34;5063241;28;20032;-71
2023/07/16 10:45:35;;;;;;;8.98;4.38;;;;;;;20.34;68.41;101113.72;5041818;28;20029;-74
2023/07/16 10:48:01;;;;;;;8.85;3.88;;;;;;;20.36;63.40;101102.47;5032880;28;20148;-70
2023/07/16 10:50:26;;;;;;;10.35;4.20;;;;;;;20.35;64.16;101107.13;5050434;28;20040;-72
2023/07/16 10:52:56;;;;;;;7.50;4.30;;;;;;;20.38;65.69;101107.66;5047669;28;20051;-72
2023/07/16 10:55:25;;;;;;;11.57;4.35;;;;;;;20.40;64.78;101121.97;5053010;28;20408;-75
2023/07/16 10:57:51;;;;;;;9.30;4.00;;;;;;;20.32;63.07;101118.69;5050607;28;20060;-69
2023/07/16 11:00:17;;;;;;;9.55;3.95;;;;;;;20.31;64.36;101125.28;5044757;28;20489;-68
2023/07/16 11:02:44;;;;;;;7.40;4.22;;;;;;;20.29;64.95;101123.94;5032193;28;20084;-68
2023/07/16 11:05:14;;;;;;;8.45;3.97;;;;;;;20.26;66.16;101138.22;5043568;28;20465;-67
2023/07/16 11:07:49;;;;;;;10.75;4.60;;;;;;;20.25;67.56;101144.84;5037819;28;20056;-69
2023/07/16 11:10:16;;;;;;;8.90;4.07;;;;;;;20.21;67.77;101139.09;5044584;28;20029;-68
2023/07/16 11:12:42;;;;;;;10.45;4.60;;;;;;;20.13;67.30;101142.44;5072470;28;20035;-68
2023/07/16 11:15:08;;;;;;;10.02;4.75;;;;;;;20.10;65.86;101146.56;5073615;28;20036;-67
2023/07/16 11:17:34;;;;;;;9.65;4.50;;;;;;;20.08;68.04;101137.78;5056542;28;20049;-67
2023/07/16 11:19:59;;;;;;;9.07;4.53;;;;;;;;;;5052531;28;20041;-68
2023/07/16 11:22:26;;;;;;;9.23;4.35;;;;;;;20.11;68.33;101142.72;5036461;28;20029;-68
2023/07/16 11:24:53;;;;;;;10.88;4.68;;;;;;;20.16;70.46;101150.13;5044785;28;20029;-67
2023/07/16 11:27:20;;;;;;;9.68;3.92;;;;;;;20.20;68.42;101140.22;5039935;28;20025;-66
2023/07/16 11:29:47;;;;;;;8.90;4.32;;;;;;;20.31;71.70;101139.03;5051173;28;20187;-68
2023/07/16 11:32:25;;;;;;;10.80;4.28;;;;;;;20.31;68.20;101152.78;5053623;28;20126;-73
2023/07/16 11:34:58;;;;;;;8.57;4.22;;;;;;;20.40;69.57;101143.94;5052251;28;20082;-70
2023/07/16 11:37:32;;;;;;;8.68;4.40;;;;;;;20.49;69.47;101150.50;5045502;28;20075;-70
2023/07/16 11:40:06;;;;;;;10.60;4.47;;;;;;;20.47;67.08;101153.53;5031687;28;20029;-69
2023/07/16 11:42:37;;;;;;;9.73;4.50;;;;;;;20.44;67.65;101148.59;5035902;28;20065;-68
2023/07/16 11:45:03;;;;;;;10.88;4.40;;;;;;;20.39;67.07;101161.53;5046939;28;20032;-67
2023/07/16 11:47:30;;;;;;;12.13;4.60;;;;;;;20.38;66.93;101160.69;5050608;28;20048;-68
2023/07/16 11:49:56;;;;;;;8.95;4.70;;;;;;;20.43;66.92;101166.19;5053327;28;20361;-71
2023/07/16 11:52:26;;;;;;;14.32;4.80;;;;;;;20.52;67.39;101163.66;5053276;28;20456;-71
2023/07/16 11:54:52;;;;;;;8.98;4.35;;;;;;;20.47;66.16;101166.41;5045421;28;20048;-68
2023/07/16 11:57:18;;;;;;;11.13;4.40;;;;;;;20.35;66.10;101164.84;5038478;28;20029;-67
2023/07/16 11:59:43;;;;;;;10.88;4.82;;;;;;;20.10;72.67;101178.72;5032319;28;20044;-68
2023/07/16 12:02:09;;;;;;;9.02;4.70;;;;;;;19.82;90.68;101184.59;5040676;28;20025;-69
2023/07/16 12:04:34;;;;;;;12.32;5.10;;;;;;;19.66;98.60;101189.25;5064621;28;20392;-69
2023/07/16 12:07:00;;;;;;;10.38;4.38;;;;;;;19.72;98.24;101189.25;5059888;28;20033;-71
2023/07/16 12:09:25;;;;;;;9.75;4.57;;;;;;;19.78;93.66;101190.91;5052252;28;20032;-69
2023/07/16 12:11:50;;;;;;;14.60;4.90;;;;;;;19.79;94.19;101190.63;5032680;28;20036;-68
2023/07/16 12:14:16;;;;;;;13.70;4.60;;;;;;;19.92;88.99;101188.41;5032898;28;20444;-67
2023/07/16 12:16:41;;;;;;;8.60;4.35;;;;;;;20.12;83.91;101182.00;5046621;28;20081;-67
2023/07/16 12:19:08;;;;;;;8.70;4.60;;;;;;;20.38;84.69;101187.38;5052606;28;20428;-70
2023/07/16 12:21:34;;;;;;;9.65;4.78;;;;;;;20.50;75.21;101179.59;5052654;28;20119;-69
2023/07/16 12:23:59;;;;;;;12.88;5.10;;;;;;;20.45;73.35;101176.91;5052166;28;20117;-68
2023/07/16 12:26:24;;;;;;;10.65;5.07;;;;;;;20.40;74.42;101177.75;5052642;28;20040;-67
2023/07/16 12:28:50;;;;;;;8.10;4.60;;;;;;;20.31;75.30;101191.25;5049262;28;20037;-67
2023/07/16 12:31:16;;;;;;;11.85;4.85;;;;;;;20.15;77.92;101193.22;5042228;28;20032;-69
2023/07/16 12:33:42;;;;;;;11.27;5.03;;;;;;;20.11;89.59;101191.34;5038032;28;20032;-69
2023/07/16 12:36:08;;;;;;;10.77;4.93;;;;;;;20.24;100.00;101198.97;5037011;28;20061;-73
2023/07/16 12:38:33;;;;;;;10.32;5.03;;;;;;;20.35;94.34;101205.25;5032305;28;20110;-70
2023/07/16 12:40:58;;;;;;;8.63;4.82;;;;;;;20.40;90.10;101194.25;5032591;28;20029;-70
2023/07/16 12:43:27;;;;;;;10.18;4.85;;;;;;;20.60;95.42;101192.47;5032569;28;20033;-79
2023/07/16 12:45:52;;;;;;;8.30;4.53;;;;;;;20.64;79.63;101194.38;5039677;28;20169;-67
2023/07/16 12:48:18;;;;;;;10.13;4.30;;;;;;;20.68;78.14;101191.91;5035607;28;20133;-69
2023/07/16 12:50:43;;;;;;;7.18;4.00;;;;;;;20.78;78.25;101193.78;5037016;28;20029;-68
2023/07/16 12:53:08;;;;;;;9.10;4.07;;;;;;;21.03;75.25;101204.59;5033759;28;20029;-67
2023/07/16 12:55:34;;;;;;;13.43;4.25;;;;;;;21.33;71.87;101204.59;5034185;28;20076;-68
2023/07/16 12:57:59;;;;;;;9.75;4.18;;;;;;;21.39;67.76;101207.03;5031993;28;20045;-68
2023/07/16 13:00:31;;;;;;;8.40;4.03;;;;;;;21.33;65.11;101193.59;5038422;28;20447;-77
2023/07/16 13:02:56;;;;;;;6.75;3.58;;;;;;;21.38;62.87;101202.63;5048834;28;20041;-69
2023/07/16 13:05:21;;;;;;;8.98;3.70;;;;;;;21.48;64.19;101207.22;5039725;28;20462;-68
2023/07/16 13:07:46;;;;;;;7.30;3.70;;;;;;;21.58;61.98;101201.63;5050211;28;20037;-71
2023/07/16 13:10:12;;;;;;;9.50;3.33;;;;;;;21.79;64.19;101209.69;5035083;28;20025;-69
2023/07/16 13:12:37;;;;;;;9.80;2.90;;;;;;;21.88;58.38;101199.69;5032331;28;20480;-66
2023/07/16 13:15:09;;;;;;;5.60;2.65;;;;;;;21.91;57.68;101198.28;5032280;28;20466;-76
2023/07/16 13:17:35;;;;;;;6.72;3.35;;;;;;;21.89;56.30;101201.31;5030188;28;20035;-74
2023/07/16 13:20:00;;;;;;;7.00;3.00;;;;;;;21.91;56.62;101203.78;5030132;28;20021;-72
2023/07/16 13:22:35;;;;;;;4.80;2.80;;;;;;;22.08;58.01;101197.78;5040988;28;20060;-74
2023/07/16 13:25:01;;;;;;;6.75;2.90;;;;;;;22.13;57.87;101195.81;5032809;28;20033;-68
2023/07/16 13:27:26;;;;;;;9.40;2.95;;;;;;;22.01;56.90;101195.41;5032075;28;20021;-74
2023/07/16 13:29:51;;;;;;;7.88;3.22;;;;;;;21.89;58.32;101201.31;5035147;28;20099;-70
2023/07/16 13:32:17;;;;;;;8.88;3.05;;;;;;;21.77;57.88;101198.16;5051993;28;20032;-71
2023/07/16 13:34:42;;;;;;;7.00;2.80;;;;;;;21.68;57.12;101199.88;5052890;28;20047;-69
2023/07/16 13:37:08;;;;;;;6.53;3.10;;;;;;;21.66;58.55;101197.44;5054400;28;20136;-71
2023/07/16 13:39:33;;;;;;;7.00;3.13;;;;;;;21.59;58.42;101202.47;5055506;28;20040;-72
2023/07/16 13:41:58;;;;;;;6.85;3.13;;;;;;;21.60;60.82;101212.38;5055401;28;20461;-70
2023/07/16 13:44:24;;;;;;;4.00;2.80;;;;;;;21.57;59.16;101210.19;5053592;28;20033;-70
2023/07/16 13:46:49;;;;;;;7.03;2.92;;;;;;;21.49;57.57;101211.63;5047039;28;20041;-71
2023/07/16 13:49:14;;;;;;;6.32;2.88;;;;;;;21.36;56.27;101207.63;5048887;28;20045;-69
2023/07/16 13:51:40;;;;;;;5.38;2.72;;;;;;;21.32;58.39;101203.78;5055338;28;20029;-70
2023/07/16 13:54:08;;;;;;;4.40;2.65;;;;;;;21.36;58.51;101217.78;5042852;28;20425;-76
2023/07/16 13:56:33;;;;;;;5.90;3.00;;;;;;;21.38;58.80;101205.38;5035343;28;20026;-68
2023/07/16 13:58:58;;;;;;;5.05;2.72;;;;;;;21.36;58.36;101213.13;5038153;28;20113;-74
2023/07/16 14:01:24;;;;;;;7.57;3.35;;;;;;;21.34;59.97;101211.75;5036049;28;20054;-68
2023/07/16 14:03:49;;;;;;;7.30;3.30;;;;;;;21.32;59.86;101220.31;5035176;28;20072;-77
2023/07/16 14:06:14;;;;;;;11.07;3.70;;;;;;;21.29;58.77;101225.56;5034958;28;20540;-69
2023/07/16 14:08:40;;;;;;;6.43;3.20;;;;;;;21.27;58.36;101212.09;5041225;28;20625;-67
2023/07/16 14:11:05;;;;;;;8.45;3.10;;;;;;;21.27;58.14;101217.59;5039577;28;20037;-68
2023/07/16 14:13:31;;;;;;;7.35;3.20;;;;;;;21.16;58.33;101222.34;5038439;28;20125;-68
2023/07/16 14:15:56;;;;;;;6.68;3.50;;;;;;;21.14;58.99;101218.28;5047592;28;20034;-69
2023/07/16 14:18:22;;;;;;;8.18;3.38;;;;;;;21.22;60.12;101217.63;5045720;28;20041;-69
2023/07/16 14:20:47;;;;;;;8.65;3.95;;;;;;;21.32;59.54;101225.00;5038602;28;20041;-70
2023/07/16 14:23:13;;;;;;;9.63;3.90;;;;;;;21.30;60.01;101221.69;5050499;28;20049;-68
2023/07/16 14:25:38;;;;;;;5.70;3.45;;;;;;;21.36;60.98;101231.56;5035810;28;20042;-70
2023/07/16 14:28:04;;;;;;;7.68;3.28;;;;;;;21.39;62.15;101237.31;5054509;28;20029;-70
2023/07/16 14:30:29;;;;;;;6.95;3.50;;;;;;;21.39;61.80;101217.22;5046771;28;20458;-70
2023/07/16 14:32:55;;;;;;;5.78;3.42;;;;;;;21.35;61.00;101225.25;5034734;28;20379;-73
2023/07/16 14:35:24;;;;;;;8.77;3.78;;;;;;;21.39;62.10;101228.22;5070174;28;20063;-75
2023/07/16 14:37:49;;;;;;;7.22;3.75;;;;;;;21.41;61.61;101223.28;5073132;28;20047;-74
2023/07/16 14:40:14;;;;;;;9.35;3.55;;;;;;;21.41;58.96;101234.28;5062360;28;20021;-72
2023/07/16 14:42:49;;;;;;;8.32;3.28;;;;;;;21.52;58.85;101219.31;5049143;28;20051;-78
2023/07/16 14:45:15;;;;;;;8.30;2.78;;;;;;;21.65;57.63;101215.09;5044496;28;20033;-70
2023/07/16 14:47:40;;;;;;;7.88;2.80;;;;;;;21.71;55.73;101216.66;5033669;28;20052;-78
2023/07/16 14:50:14;;;;;;;4.20;2.50;;;;;;;21.57;55.08;101223.97;5049975;28;20111;-78
2023/07/16 14:52:40;;;;;;;7.65;2.75;;;;;;;21.45;55.41;101232.56;5041888;28;20465;-71
2023/07/16 14:55:05;;;;;;;6.90;2.67;;;;;;;21.29;55.70;101231.91;5040265;28;20029;-70
2023/07/16 14:57:31;;;;;;;5.10;2.50;;;;;;;21.24;56.24;101226.41;5052297;28;20025;-71
2023/07/16 14:59:56;;;;;;;5.40;2.78;;;;;;;21.17;56.69;101224.00;5052989;28;20427;-72
2023/07/16 15:02:22;;;;;;;5.80;2.65;;;;;;;21.17;56.34;101215.75;5035899;28;20484;-72
2023/07/16 15:04:47;;;;;;;6.75;2.75;;;;;;;21.18;57.18;101222.06;5052828;28;20384;-71
2023/07/16 15:07:13;;;;;;;4.68;2.50;;;;;;;21.13;57.52;101227.63;5054151;28;20021;-71
2023/07/16 15:09:38;;;;;;;5.18;2.47;;;;;;;21.10;57.14;101223.50;5040849;28;20029;-71
2023/07/16 15:12:05;;;;;;;6.15;2.70;;;;;;;21.10;56.92;101237.28;5054033;28;20072;-69
2023/07/16 15:14:31;;;;;;;5.72;2.60;;;;;;;21.24;57.02;101229.16;5038166;28;20160;-72
2023/07/16 15:16:56;;;;;;;7.88;2.85;;;;;;;21.39;57.29;101233.72;5053831;28;20107;-68
2023/07/16 15:19:21;;;;;;;8.98;2.58;;;;;;;21.40;56.87;101233.44;5058337;28;20110;-75
2023/07/16 15:21:47;;;;;;;5.70;2.60;;;;;;;21.37;57.87;101238.72;5044033;28;20155;-74
2023/07/16 15:24:21;;;;;;;7.32;2.33;;;;;;;21.31;58.50;101223.34;5041224;28;20032;-78
2023/07/16 15:26:46;;;;;;;4.78;2.30;;;;;;;21.35;59.36;101232.69;5052263;28;20119;-70
2023/07/16 15:29:11;;;;;;;5.07;2.53;;;;;;;21.35;58.07;101230.75;5039988;28;20485;-72
2023/07/16 15:31:37;;;;;;;6.40;2.55;;;;;;;21.32;56.80;101236.00;5058943;28;20582;-70
2023/07/16 15:34:02;;;;;;;3.10;2.15;;;;;;;21.25;55.15;101222.56;5053418;28;20020;-69
2023/07/16 15:36:27;;;;;;;3.78;2.22;;;;;;;21.13;56.63;101227.63;5040378;28;20025;-69
2023/07/16 15:38:53;;;;;;;6.05;2.20;;;;;;;21.05;58.23;101229.88;5032516;28;20460;-70
2023/07/16 15:41:27;;;;;;;6.47;2.67;;;;;;;20.97;57.87;101224.16;5046389;28;20021;-73
2023/07/16 15:43:53;;;;;;;4.80;2.42;;;;;;;20.89;59.75;101225.59;5037841;28;20033;-70
2023/07/16 15:46:18;;;;;;;5.53;2.40;;;;;;;20.83;59.99;101223.97;5052990;28;20119;-70
2023/07/16 15:48:45;;;;;;;5.45;2.45;;;;;;;20.78;60.59;101213.84;5040676;28;20060;-70
2023/07/16 15:51:12;;;;;;;4.35;2.30;;;;;;;20.88;61.10;101227.53;5038893;28;20036;-70
2023/07/16 15:53:37;;;;;;;4.03;2.20;;;;;;;21.17;59.77;101232.25;5037217;28;20029;-73
2023/07/16 15:56:02;;;;;;;5.03;2.60;;;;;;;21.51;58.27;101222.38;5044240;28;20400;-70
2023/07/16 15:58:28;;;;;;;6.95;2.58;;;;;;;21.83;58.45;101219.03;5032432;28;20116;-71
